createdAt,value
2019-04-06T00:04:23.025Z,51.63
2019-04-06T00:09:28.248Z,49.27
2019-04-06T00:14:33.749Z,54.03
2019-04-06T00:19:38.956Z,50.60
2019-04-06T00:24:44.141Z,51.10
2019-04-06T00:29:49.770Z,50.73
2019-04-06T00:34:54.931Z,54.43
2019-04-06T00:40:00.101Z,52.03
2019-04-06T00:45:05.649Z,53.27
2019-04-06T00:50:11.308Z,53.47
2019-04-06T00:55:16.859Z,56.03
2019-04-06T01:00:22.944Z,53.63
2019-04-06T01:05:28.546Z,54.67
2019-04-06T01:10:33.719Z,54.57
2019-04-06T01:15:38.885Z,53.23
2019-04-06T01:20:44.943Z,54.27
2019-04-06T01:25:50.176Z,52.95
2019-04-06T01:30:55.359Z,53.97
2019-04-06T01:36:00.965Z,52.80
2019-04-06T01:41:07.198Z,55.67
2019-04-06T01:46:12.352Z,54.00
2019-04-06T01:51:17.519Z,57.70
2019-04-06T01:56:22.765Z,56.70
2019-04-06T02:01:47.244Z,53.00
2019-04-06T02:06:52.419Z,55.97
2019-04-06T02:11:58.440Z,52.87
2019-04-06T02:17:04.008Z,53.60
2019-04-06T02:22:09.159Z,56.40
2019-04-06T02:27:14.333Z,56.60
2019-04-06T02:32:44.567Z,61.73
2019-04-06T02:38:10.509Z,52.87
2019-04-06T02:43:18.742Z,56.13
2019-04-06T02:48:24.236Z,56.13
2019-04-06T02:53:29.403Z,49.50
2019-04-06T02:58:34.701Z,51.17
2019-04-06T03:03:39.902Z,50.43
2019-04-06T03:08:45.048Z,48.67
2019-04-06T03:13:50.249Z,48.77
2019-04-06T03:18:55.587Z,47.07
2019-04-06T03:24:00.791Z,50.83
2019-04-06T03:29:05.980Z,47.50
2019-04-06T03:34:12.295Z,51.73
2019-04-06T03:39:18.162Z,44.87
2019-04-06T03:44:23.465Z,40.57
2019-04-06T03:49:28.674Z,40.70
2019-04-06T03:54:34.230Z,41.60
2019-04-06T03:59:39.619Z,43.27
2019-04-06T04:04:45.401Z,43.40
2019-04-06T04:09:50.601Z,45.17
2019-04-06T04:14:56.232Z,45.27
2019-04-06T04:20:02.244Z,44.23
2019-04-06T04:25:08.140Z,45.67
2019-04-06T04:30:15.376Z,44.47
2019-04-06T04:35:21.792Z,43.17
2019-04-06T04:40:28.089Z,44.20
2019-04-06T04:45:34.531Z,41.97
2019-04-06T04:50:42.002Z,45.03
2019-04-06T04:55:48.859Z,44.10
2019-04-06T05:00:55.348Z,42.40
2019-04-06T05:06:01.898Z,41.53
2019-04-06T05:11:09.063Z,42.30
2019-04-06T05:16:15.551Z,44.60
2019-04-06T05:21:21.140Z,45.87
2019-04-06T05:26:36.620Z,53.97
2019-04-06T05:31:33.411Z,51.20
2019-04-06T05:36:39.588Z,58.90
2019-04-06T05:41:44.825Z,52.47
2019-04-06T05:46:50.021Z,47.20
2019-04-06T05:51:55.501Z,51.50
2019-04-06T05:57:02.176Z,56.47
2019-04-06T06:02:08.009Z,45.27
2019-04-06T06:07:14.532Z,46.30
2019-04-06T06:12:20.183Z,42.50
2019-04-06T06:17:25.582Z,41.00
2019-04-06T06:22:30.813Z,41.87
2019-04-06T06:27:36.146Z,43.13
2019-04-06T06:32:41.708Z,41.43
2019-04-06T06:37:47.419Z,42.23
2019-04-06T06:42:53.213Z,39.53
2019-04-06T06:47:58.910Z,38.90
2019-04-06T06:53:04.346Z,38.33
2019-04-06T06:58:09.907Z,38.63
2019-04-06T07:03:15.111Z,39.13
2019-04-06T07:08:20.656Z,36.53
2019-04-06T07:13:25.951Z,33.07
2019-04-06T07:18:31.274Z,32.17
2019-04-06T07:23:37.349Z,29.53
2019-04-06T07:28:44.002Z,30.62
2019-04-06T07:33:49.556Z,28.75
2019-04-06T07:38:55.015Z,29.57
2019-04-06T07:44:00.318Z,29.67
2019-04-06T07:49:09.335Z,27.53
2019-04-06T07:54:13.818Z,28.07
2019-04-06T07:59:19.362Z,28.67
2019-04-06T08:04:25.482Z,31.02
2019-04-06T08:09:30.671Z,35.47
2019-04-06T08:14:35.946Z,41.00
2019-04-06T08:19:41.463Z,31.80
2019-04-06T08:24:46.789Z,27.85
2019-04-06T08:29:52.504Z,27.65
2019-04-06T08:34:57.886Z,27.03
2019-04-06T08:40:03.442Z,27.93
2019-04-06T08:45:09.047Z,27.67
2019-04-06T08:50:14.729Z,30.15
2019-04-06T08:55:20.310Z,30.15
2019-04-06T09:00:27.312Z,28.87
2019-04-06T09:05:32.634Z,31.52
2019-04-06T09:10:37.899Z,29.40
2019-04-06T09:15:43.348Z,26.52
2019-04-06T09:20:49.957Z,26.13
2019-04-06T09:25:55.417Z,25.70
2019-04-06T09:31:01.102Z,26.52
2019-04-06T09:36:07.274Z,24.45
2019-04-06T09:41:13.231Z,25.27
2019-04-06T09:46:29.530Z,22.62
2019-04-06T09:52:04.655Z,22.93
2019-04-06T09:57:28.448Z,24.47
2019-04-06T10:02:44.997Z,21.10
2019-04-06T10:08:02.748Z,23.95
2019-04-06T10:13:25.630Z,23.98
2019-04-06T10:18:53.770Z,25.40
2019-04-06T10:24:26.927Z,28.57
2019-04-06T10:29:54.257Z,26.60
2019-04-06T10:35:11.171Z,28.32
2019-04-06T10:40:45.130Z,27.13
2019-04-06T10:46:10.078Z,26.82
2019-04-06T10:51:34.794Z,27.15
2019-04-06T10:56:58.208Z,25.97
2019-04-06T11:02:25.688Z,25.57
2019-04-06T11:07:39.960Z,26.85
2019-04-06T11:13:05.844Z,29.52
2019-04-06T11:18:42.818Z,28.23
2019-04-06T11:24:19.628Z,22.22
2019-04-06T11:29:43.919Z,19.85
2019-04-06T11:35:16.035Z,20.32
2019-04-06T11:40:39.741Z,22.32
2019-04-06T11:45:56.498Z,18.75
2019-04-06T11:51:15.567Z,17.35
2019-04-06T11:56:43.096Z,17.57
2019-04-06T12:02:07.661Z,18.12
2019-04-06T12:07:31.891Z,20.17
2019-04-06T12:12:46.020Z,17.00
2019-04-06T12:18:11.562Z,16.37
2019-04-06T12:23:27.397Z,17.95
2019-04-06T12:28:41.780Z,18.05
2019-04-06T12:33:59.215Z,18.95
2019-04-06T12:39:28.400Z,16.37
2019-04-06T12:44:52.155Z,17.70
2019-04-06T12:50:20.742Z,17.82
2019-04-06T12:55:45.061Z,16.75
2019-04-06T13:01:19.161Z,14.50
2019-04-06T13:06:48.835Z,16.10
2019-04-06T13:12:15.895Z,16.87
2019-04-06T13:17:27.841Z,17.00
2019-04-06T13:22:52.863Z,17.80
2019-04-06T13:28:14.428Z,16.87
2019-04-06T13:33:48.326Z,18.67
2019-04-06T13:39:00.652Z,19.77
2019-04-06T13:44:13.559Z,21.02
2019-04-06T13:49:41.347Z,22.07
2019-04-06T13:55:13.268Z,22.67
2019-04-06T14:00:31.713Z,24.27
2019-04-06T14:05:56.048Z,24.35
2019-04-06T14:11:18.952Z,24.12
2019-04-06T14:16:49.551Z,26.10
2019-04-06T14:22:13.907Z,24.65
2019-04-06T14:27:39.052Z,25.45
2019-04-06T14:33:12.463Z,25.20
2019-04-06T14:38:36.756Z,25.97
2019-04-06T14:43:49.967Z,26.82
2019-04-06T14:49:28.532Z,27.10
2019-04-06T14:54:43.613Z,28.15
2019-04-06T15:00:01.407Z,27.77
2019-04-06T15:05:26.799Z,28.65
2019-04-06T15:11:09.413Z,28.55
2019-04-06T15:16:20.133Z,28.32
2019-04-06T15:21:43.436Z,29.05
2019-04-06T15:27:14.064Z,28.47
2019-04-06T15:32:44.646Z,27.95
2019-04-06T15:37:58.968Z,27.42
2019-04-06T15:43:20.126Z,27.52
2019-04-06T15:48:49.142Z,26.17
2019-04-06T15:54:12.397Z,24.85
2019-04-06T15:59:28.016Z,24.95
2019-04-06T16:04:42.502Z,23.60
2019-04-06T16:10:07.622Z,23.27
2019-04-06T16:15:23.730Z,21.40
2019-04-06T16:20:45.059Z,22.25
2019-04-06T16:26:04.977Z,21.40
2019-04-06T16:31:32.036Z,23.62
2019-04-06T16:37:02.490Z,19.73
2019-04-06T16:42:29.493Z,16.77
2019-04-06T16:47:56.384Z,15.75
2019-04-06T16:53:20.294Z,18.00
2019-04-06T16:58:42.757Z,18.50
2019-04-06T17:03:57.824Z,17.90
2019-04-06T17:09:23.200Z,17.42
2019-04-06T17:14:52.886Z,18.52
2019-04-06T17:20:11.676Z,17.42
2019-04-06T17:25:54.639Z,17.60
2019-04-06T17:31:24.658Z,16.32
2019-04-06T17:36:41.531Z,16.10
2019-04-06T17:42:09.879Z,16.07
2019-04-06T17:47:33.658Z,17.10
2019-04-06T17:52:56.658Z,17.55
2019-04-06T17:58:20.962Z,17.25
2019-04-06T18:03:40.723Z,16.85
2019-04-06T18:09:05.839Z,17.37
2019-04-06T18:14:11.757Z,17.62
2019-04-06T18:19:17.237Z,17.15
2019-04-06T18:24:23.415Z,16.17
2019-04-06T18:29:28.703Z,16.57
2019-04-06T18:34:33.996Z,17.37
2019-04-06T18:39:39.622Z,20.77
2019-04-06T18:44:44.899Z,18.35
2019-04-06T18:49:50.308Z,18.45
2019-04-06T18:54:55.576Z,19.02
2019-04-06T19:00:00.906Z,19.77
2019-04-06T19:05:07.803Z,19.32
2019-04-06T19:10:13.889Z,19.67
2019-04-06T19:15:19.156Z,19.35
2019-04-06T19:20:25.025Z,19.32
2019-04-06T19:25:30.738Z,22.75
2019-04-06T19:30:36.322Z,20.62
2019-04-06T19:35:41.883Z,20.60
2019-04-06T19:40:47.304Z,20.65
2019-04-06T19:45:53.146Z,20.02
2019-04-06T19:50:58.973Z,19.42
2019-04-06T19:56:04.728Z,20.77
2019-04-06T20:01:10.467Z,18.75
2019-04-06T20:06:16.672Z,19.27
2019-04-06T20:11:22.820Z,19.62
2019-04-06T20:16:28.412Z,20.60
2019-04-06T20:21:34.106Z,19.98
2019-04-06T20:26:40.174Z,20.97
2019-04-06T20:31:45.465Z,20.95
2019-04-06T20:36:51.544Z,21.12
2019-04-06T20:41:57.502Z,21.60
2019-04-06T20:47:04.167Z,20.57
2019-04-06T20:52:09.690Z,20.55
2019-04-06T20:57:16.542Z,20.48
2019-04-06T21:02:22.652Z,20.57
2019-04-06T21:07:28.542Z,21.40
2019-04-06T21:12:34.338Z,21.07
2019-04-06T21:17:39.862Z,20.48
2019-04-06T21:22:45.368Z,20.72
2019-04-06T21:27:51.394Z,21.30
2019-04-06T21:32:57.861Z,20.65
2019-04-06T21:38:03.943Z,20.50
2019-04-06T21:43:10.008Z,20.65
2019-04-06T21:48:16.027Z,20.20
2019-04-06T21:53:21.538Z,19.12
2019-04-06T21:58:27.165Z,19.40
2019-04-06T22:03:32.741Z,19.37
2019-04-06T22:08:38.522Z,18.20
2019-04-06T22:13:44.264Z,18.50
2019-04-06T22:18:49.825Z,18.15
2019-04-06T22:23:56.623Z,18.02
2019-04-06T22:29:02.685Z,18.02
2019-04-06T22:34:08.154Z,17.77
2019-04-06T22:39:14.597Z,16.97
2019-04-06T22:44:19.865Z,16.67
2019-04-06T22:49:25.252Z,16.73
2019-04-06T22:54:30.537Z,16.42
2019-04-06T22:59:36.723Z,17.55
2019-04-06T23:04:55.159Z,17.67
2019-04-06T23:10:01.063Z,16.93
2019-04-06T23:15:07.159Z,15.90
2019-04-06T23:20:12.431Z,15.05
2019-04-06T23:25:18.696Z,15.20
2019-04-06T23:30:24.883Z,14.03
2019-04-06T23:35:31.554Z,14.05
2019-04-06T23:40:36.826Z,13.95
2019-04-06T23:45:42.542Z,14.33
2019-04-06T23:50:48.358Z,15.18
2019-04-06T23:55:54.098Z,14.47
